Time;durP1;ratioP1;P1;durP2;ratioP2;P2;SDS_P1;SDS_P2;PMS_P1;PMS_P2;Temp;Humidity;BMP_temperature;BMP_pressure;BME280_temperature;BME280_humidity;BME280_pressure;Samples;Min_cycle;Max_cycle;Signal;HPM_P1;HPM_P2
2022/07/05 00:02:15;;;;;;;0.60;0.60;;;19.80;83.30;;;;;;5051965;28;20028;-54
2022/07/05 00:04:41;;;;;;;1.17;0.90;;;19.80;83.50;;;;;;5051891;28;20032;-51
2022/07/05 00:07:19;;;;;;;1.70;0.90;;;19.80;84.20;;;;;;5033037;28;20021;-51
2022/07/05 00:09:50;;;;;;;2.97;1.00;;;19.70;84.20;;;;;;5051901;28;20029;-50
2022/07/05 00:12:17;;;;;;;8.00;1.38;;;19.60;84.80;;;;;;5051879;28;20502;-52
2022/07/05 00:14:44;;;;;;;1.20;1.00;;;19.60;85.10;;;;;;5051630;28;20484;-53
2022/07/05 00:17:11;;;;;;;1.65;1.00;;;19.50;85.20;;;;;;5032742;28;20075;-49
2022/07/05 00:19:36;;;;;;;2.22;0.95;;;19.40;85.50;;;;;;5051691;28;20025;-51
2022/07/05 00:22:02;;;;;;;4.72;1.23;;;19.40;85.90;;;;;;5051597;28;20025;-52
2022/07/05 00:24:28;;;;;;;3.85;1.60;;;19.40;86.20;;;;;;5051432;28;20374;-51
2022/07/05 00:26:53;;;;;;;2.20;1.05;;;19.30;86.60;;;;;;5050767;28;20108;-55
2022/07/05 00:29:19;;;;;;;2.15;1.05;;;19.20;87.00;;;;;;5051533;28;20040;-50
2022/07/05 00:31:44;;;;;;;3.63;1.10;;;19.20;87.60;;;;;;5051584;28;20037;-50
2022/07/05 00:34:10;;;;;;;1.00;0.90;;;19.20;88.30;;;;;;5051621;28;20029;-50
2022/07/05 00:36:36;;;;;;;1.38;0.90;;;19.20;88.20;;;;;;5051499;28;20025;-52
2022/07/05 00:39:02;;;;;;;1.90;1.35;;;19.10;88.10;;;;;;5050787;28;20025;-51
2022/07/05 00:41:27;;;;;;;2.42;1.08;;;19.10;88.10;;;;;;5051499;28;20491;-53
2022/07/05 00:43:56;;;;;;;5.38;1.23;;;19.10;88.40;;;;;;5051610;28;20134;-52
2022/07/05 00:46:22;;;;;;;5.07;0.90;;;19.10;88.90;;;;;;5051459;28;20024;-50
2022/07/05 00:48:48;;;;;;;3.00;0.70;;;19.10;89.10;;;;;;5050773;28;20025;-52
2022/07/05 00:51:14;;;;;;;2.65;0.85;;;19.10;89.70;;;;;;5051405;28;20024;-53
2022/07/05 00:53:40;;;;;;;1.63;1.00;;;19.00;89.70;;;;;;5051416;28;20029;-53
2022/07/05 00:56:06;;;;;;;2.45;1.55;;;19.00;90.10;;;;;;5051503;28;20029;-50
2022/07/05 00:58:33;;;;;;;1.80;1.27;;;19.00;90.30;;;;;;5050667;28;20147;-50
2022/07/05 01:01:01;;;;;;;1.35;0.93;;;18.90;90.00;;;;;;5051912;28;20021;-51
2022/07/05 01:03:27;;;;;;;1.35;1.10;;;18.80;90.00;;;;;;5051919;28;20255;-51
2022/07/05 01:05:53;;;;;;;0.75;0.75;;;18.80;90.10;;;;;;5055517;28;20456;-48
2022/07/05 01:08:19;;;;;;;1.30;0.90;;;18.80;90.10;;;;;;5054957;28;20017;-52
2022/07/05 01:10:45;;;;;;;1.48;0.90;;;18.80;90.00;;;;;;5053949;28;20044;-51
2022/07/05 01:13:11;;;;;;;1.38;1.10;;;18.80;90.10;;;;;;5055692;28;20018;-50
2022/07/05 01:15:37;;;;;;;3.45;1.17;;;18.80;90.10;;;;;;5055501;28;20025;-52
2022/07/05 01:18:05;;;;;;;4.30;1.30;;;18.90;90.00;;;;;;5073101;22;20041;-52
2022/07/05 01:20:30;;;;;;;4.05;1.10;;;18.80;90.00;;;;;;5035427;28;20030;-54
2022/07/05 01:22:59;;;;;;;2.50;1.13;;;18.90;90.10;;;;;;5035115;28;20036;-50
2022/07/05 01:25:26;;;;;;;3.72;1.35;;;18.90;90.00;;;;;;5035109;28;20512;-55
2022/07/05 01:27:52;;;;;;;8.35;0.82;;;18.80;90.50;;;;;;5034163;28;20478;-55
2022/07/05 01:30:18;;;;;;;5.70;1.20;;;18.80;91.10;;;;;;5034917;28;20026;-55
2022/07/05 01:32:45;;;;;;;2.38;0.82;;;18.70;91.10;;;;;;5035068;28;20073;-52
2022/07/05 01:35:12;;;;;;;1.20;0.93;;;18.70;90.90;;;;;;5034801;28;20040;-56
2022/07/05 01:37:37;;;;;;;8.55;1.17;;;18.70;91.30;;;;;;5034166;28;20095;-54
2022/07/05 01:40:04;;;;;;;3.63;1.35;;;18.60;91.40;;;;;;5034786;28;20018;-52
2022/07/05 01:42:30;;;;;;;2.60;1.00;;;18.60;91.00;;;;;;5034804;28;20048;-56
2022/07/05 01:44:55;;;;;;;3.15;2.05;;;18.60;91.10;;;;;;5034581;28;20029;-52
2022/07/05 01:47:22;;;;;;;1.55;1.00;;;18.60;91.10;;;;;;5033837;28;20029;-56
2022/07/05 01:49:51;;;;;;;1.40;1.27;;;18.50;91.10;;;;;;5034488;28;20086;-56
2022/07/05 01:52:20;;;;;;;2.28;1.15;;;18.40;91.00;;;;;;5034606;28;20398;-54
2022/07/05 01:54:46;;;;;;;5.07;1.10;;;18.40;91.30;;;;;;5016641;28;20028;-56
2022/07/05 01:57:12;;;;;;;4.78;1.30;;;18.30;91.50;;;;;;5033689;28;20033;-52
2022/07/05 01:59:37;;;;;;;1.05;1.05;;;18.30;91.80;;;;;;5034349;28;20191;-52
2022/07/05 02:02:04;;;;;;;4.30;1.05;;;18.30;92.00;;;;;;5034329;28;20022;-52
2022/07/05 02:04:30;;;;;;;2.00;1.30;;;18.30;92.10;;;;;;5034669;28;20032;-54
2022/07/05 02:06:56;;;;;;;6.63;1.20;;;18.30;92.30;;;;;;5033609;28;20030;-50
2022/07/05 02:09:22;;;;;;;1.23;1.08;;;18.30;92.30;;;;;;5034021;28;20025;-50
2022/07/05 02:11:48;;;;;;;1.20;1.10;;;18.30;92.20;;;;;;5032558;28;20101;-56
2022/07/05 02:14:13;;;;;;;5.30;1.27;;;18.30;92.30;;;;;;5016388;28;20022;-51
2022/07/05 02:16:39;;;;;;;1.88;1.02;;;18.30;92.40;;;;;;5033609;28;20025;-57
2022/07/05 02:19:04;;;;;;;1.20;1.10;;;18.30;92.50;;;;;;5033172;28;20048;-53
2022/07/05 02:21:30;;;;;;;4.18;1.92;;;18.20;92.60;;;;;;5034032;28;20048;-55
2022/07/05 02:23:56;;;;;;;3.40;1.20;;;18.20;92.80;;;;;;5033936;28;20095;-53
2022/07/05 02:26:21;;;;;;;4.35;1.30;;;18.20;93.10;;;;;;5034201;28;20440;-58
2022/07/05 02:28:47;;;;;;;2.30;1.40;;;18.20;93.80;;;;;;5033150;28;20112;-51
2022/07/05 02:31:13;;;;;;;2.53;0.93;;;18.10;93.80;;;;;;5016058;28;20032;-55
2022/07/05 02:33:39;;;;;;;2.08;1.20;;;18.00;93.90;;;;;;5033826;28;20034;-52
2022/07/05 02:36:09;;;;;;;2.20;1.15;;;18.00;94.10;;;;;;5033823;28;20022;-50
2022/07/05 02:38:35;;;;;;;12.57;2.30;;;18.00;93.90;;;;;;5015206;28;20056;-55
2022/07/05 02:41:03;;;;;;;3.72;1.58;;;17.80;93.90;;;;;;5033587;28;20026;-55
2022/07/05 02:43:29;;;;;;;2.50;1.23;;;17.80;94.00;;;;;;5033716;28;20022;-53
2022/07/05 02:45:54;;;;;;;4.22;1.65;;;17.80;94.20;;;;;;5033510;28;20048;-52
2022/07/05 02:48:20;;;;;;;3.53;1.60;;;17.70;94.60;;;;;;5032756;28;20402;-52
2022/07/05 02:50:47;;;;;;;3.95;1.70;;;17.60;95.00;;;;;;5033579;28;20030;-53
2022/07/05 02:53:12;;;;;;;4.00;1.20;;;17.60;95.20;;;;;;5032501;28;20548;-55
2022/07/05 02:55:38;;;;;;;3.40;1.33;;;17.60;95.50;;;;;;5033164;28;20130;-52
2022/07/05 02:58:03;;;;;;;3.63;1.50;;;17.50;95.90;;;;;;5014417;28;20026;-56
2022/07/05 03:00:29;;;;;;;4.10;1.70;;;17.50;96.10;;;;;;5033245;28;20026;-58
2022/07/05 03:02:54;;;;;;;1.60;1.50;;;17.40;96.20;;;;;;5033078;28;20108;-50
2022/07/05 03:05:20;;;;;;;2.95;1.52;;;17.40;96.60;;;;;;5032290;28;20557;-55
2022/07/05 03:07:45;;;;;;;3.47;1.25;;;17.40;97.10;;;;;;5030627;28;20040;-49
2022/07/05 03:10:11;;;;;;;2.55;1.33;;;17.40;97.10;;;;;;5019509;28;20026;-55
2022/07/05 03:12:36;;;;;;;2.00;1.50;;;17.40;97.40;;;;;;5022469;28;20025;-48
2022/07/05 03:15:02;;;;;;;2.08;1.50;;;17.40;97.30;;;;;;5032823;28;20029;-50
2022/07/05 03:17:27;;;;;;;5.53;1.52;;;17.40;97.30;;;;;;5037953;28;20025;-53
2022/07/05 03:19:53;;;;;;;4.18;1.70;;;17.40;97.30;;;;;;5039024;28;20052;-50
2022/07/05 03:22:18;;;;;;;3.33;1.55;;;17.40;97.30;;;;;;5045758;28;20535;-54
2022/07/05 03:24:44;;;;;;;1.60;1.50;;;17.40;97.50;;;;;;5032201;28;20037;-52
2022/07/05 03:27:09;;;;;;;1.70;1.60;;;17.40;97.60;;;;;;5029540;28;20514;-53
2022/07/05 03:29:35;;;;;;;4.65;1.67;;;17.40;97.90;;;;;;5031494;28;20029;-55
2022/07/05 03:32:00;;;;;;;1.63;1.52;;;17.50;97.90;;;;;;5029235;28;20052;-52
2022/07/05 03:34:26;;;;;;;4.35;1.48;;;17.50;97.80;;;;;;5032704;28;20029;-53
2022/07/05 03:36:51;;;;;;;2.58;1.80;;;17.50;97.90;;;;;;5031731;28;20057;-52
2022/07/05 03:39:17;;;;;;;3.90;1.30;;;17.50;97.70;;;;;;5041470;28;20025;-54
2022/07/05 03:41:42;;;;;;;4.32;1.80;;;17.50;97.50;;;;;;5038866;28;20120;-50
2022/07/05 03:44:07;;;;;;;3.90;1.33;;;17.60;97.20;;;;;;5032851;28;20030;-54
2022/07/05 03:46:33;;;;;;;4.05;1.65;;;17.60;96.80;;;;;;5030722;28;20033;-55
2022/07/05 03:48:58;;;;;;;1.73;1.52;;;17.70;97.40;;;;;;5031091;28;20088;-55
2022/07/05 03:51:24;;;;;;;3.50;1.58;;;17.70;97.20;;;;;;5032375;28;20264;-51
2022/07/05 03:53:49;;;;;;;4.07;1.90;;;17.70;97.60;;;;;;5027655;28;20029;-48
2022/07/05 03:56:19;;;;;;;4.28;1.45;;;17.70;96.60;;;;;;5031322;28;20468;-54
2022/07/05 03:58:48;;;;;;;3.20;1.67;;;17.70;96.10;;;;;;5030053;28;20112;-51
2022/07/05 04:01:13;;;;;;;4.00;1.50;;;17.70;95.90;;;;;;5031933;28;20470;-54
2022/07/05 04:03:40;;;;;;;2.55;1.27;;;17.80;96.20;;;;;;5032041;28;20033;-50
2022/07/05 04:06:05;;;;;;;2.42;1.75;;;17.70;96.60;;;;;;5032081;28;20248;-52
2022/07/05 04:08:31;;;;;;;4.75;1.75;;;17.70;96.20;;;;;;5031292;28;20489;-52
2022/07/05 04:10:56;;;;;;;1.30;1.23;;;17.70;96.50;;;;;;5032936;28;20126;-55
2022/07/05 04:13:22;;;;;;;5.03;1.85;;;17.60;96.20;;;;;;5018716;28;20523;-53
2022/07/05 04:15:48;;;;;;;5.60;2.05;;;17.60;96.60;;;;;;5011944;28;20026;-50
2022/07/05 04:18:13;;;;;;;2.28;1.42;;;17.60;96.80;;;;;;5030728;28;20021;-55
2022/07/05 04:20:39;;;;;;;2.55;1.95;;;17.70;97.00;;;;;;5031779;28;20109;-54
2022/07/05 04:23:04;;;;;;;5.55;1.73;;;17.70;97.20;;;;;;5031711;28;20136;-52
2022/07/05 04:25:30;;;;;;;1.63;1.50;;;17.70;97.20;;;;;;5031714;28;20040;-51
2022/07/05 04:27:56;;;;;;;3.85;1.58;;;17.70;97.40;;;;;;5030989;28;20045;-52
2022/07/05 04:30:25;;;;;;;8.50;1.55;;;17.70;97.30;;;;;;5031449;28;20071;-53
2022/07/05 04:32:51;;;;;;;3.72;1.98;;;17.80;97.10;;;;;;5031651;28;20026;-54
2022/07/05 04:35:17;;;;;;;2.90;1.42;;;17.90;97.00;;;;;;5031453;28;20033;-52
2022/07/05 04:37:43;;;;;;;11.77;5.82;;;18.00;97.10;;;;;;5030617;28;20469;-50
2022/07/05 04:40:11;;;;;;;2.53;1.50;;;18.10;96.90;;;;;;5031412;28;20117;-56
2022/07/05 04:42:37;;;;;;;2.63;1.55;;;18.20;96.60;;;;;;5031396;28;20087;-55
2022/07/05 04:45:03;;;;;;;2.97;1.85;;;18.30;96.20;;;;;;5031399;28;20521;-51
2022/07/05 04:47:29;;;;;;;1.58;1.42;;;18.50;95.90;;;;;;5030513;28;20064;-54
2022/07/05 04:49:56;;;;;;;5.40;1.55;;;18.60;96.00;;;;;;5031478;28;20421;-52
2022/07/05 04:52:22;;;;;;;9.27;1.70;;;18.70;96.40;;;;;;5013865;28;20453;-55
2022/07/05 04:54:48;;;;;;;3.17;1.65;;;18.90;96.20;;;;;;5031415;28;20052;-54
2022/07/05 04:57:13;;;;;;;1.85;1.33;;;19.30;95.90;;;;;;5030546;28;20025;-52
2022/07/05 04:59:39;;;;;;;2.33;1.50;;;19.80;94.80;;;;;;5031772;28;20017;-52
2022/07/05 05:02:05;;;;;;;2.75;1.73;;;20.20;93.70;;;;;;5031602;28;20026;-54
2022/07/05 05:04:31;;;;;;;6.68;1.75;;;20.90;92.70;;;;;;5031834;28;20030;-53
2022/07/05 05:06:56;;;;;;;2.85;1.45;;;21.80;91.30;;;;;;5030710;28;20021;-54
2022/07/05 05:09:22;;;;;;;7.22;2.15;;;22.60;90.10;;;;;;5031430;28;20087;-51
2022/07/05 05:11:48;;;;;;;3.85;1.17;;;23.80;85.70;;;;;;5031543;28;20030;-51
2022/07/05 05:14:14;;;;;;;2.17;1.20;;;24.70;82.20;;;;;;5031315;28;20108;-52
2022/07/05 05:16:40;;;;;;;4.93;1.52;;;25.60;79.40;;;;;;5031293;28;20469;-52
2022/07/05 05:19:05;;;;;;;2.40;1.05;;;26.30;76.60;;;;;;5030453;28;20065;-48
2022/07/05 05:21:31;;;;;;;3.75;1.25;;;27.20;75.00;;;;;;5031183;28;20025;-50
2022/07/05 05:23:56;;;;;;;2.33;1.67;;;27.90;72.00;;;;;;5031252;28;20033;-50
2022/07/05 05:26:22;;;;;;;6.03;1.05;;;28.00;71.60;;;;;;5031389;28;20021;-52
2022/07/05 05:28:47;;;;;;;4.78;1.40;;;28.20;69.80;;;;;;5030230;28;20025;-53
2022/07/05 05:31:13;;;;;;;6.40;1.48;;;28.60;68.70;;;;;;5031085;28;20084;-50
2022/07/05 05:33:39;;;;;;;7.18;1.40;;;29.00;68.00;;;;;;5031012;28;20032;-48
2022/07/05 05:36:05;;;;;;;2.35;1.30;;;29.50;67.40;;;;;;5031008;28;20021;-51
2022/07/05 05:38:31;;;;;;;5.10;1.30;;;29.70;65.30;;;;;;5030107;28;20101;-50
2022/07/05 05:40:56;;;;;;;5.82;1.23;;;30.20;64.20;;;;;;5031148;28;20049;-54
2022/07/05 05:43:22;;;;;;;3.58;0.98;;;30.20;63.00;;;;;;5030842;28;20467;-48
2022/07/05 05:45:47;;;;;;;5.38;1.50;;;30.70;62.90;;;;;;5030799;28;20538;-52
2022/07/05 05:48:13;;;;;;;5.32;1.20;;;31.50;61.40;;;;;;5030037;28;20029;-53
2022/07/05 05:50:38;;;;;;;1.63;0.90;;;31.60;60.80;;;;;;5032208;28;20033;-53
2022/07/05 05:53:04;;;;;;;5.40;1.50;;;31.50;60.50;;;;;;5016392;28;20029;-54
2022/07/05 05:55:31;;;;;;;2.17;1.20;;;31.90;60.10;;;;;;5033595;28;20462;-49
2022/07/05 05:58:09;;;;;;;2.95;1.70;;;32.20;59.50;;;;;;5032292;28;20425;-51
2022/07/05 06:00:35;;;;;;;2.80;1.00;;;32.20;59.20;;;;;;5028173;28;20036;-51
2022/07/05 06:03:01;;;;;;;5.72;1.20;;;32.40;59.40;;;;;;5034401;28;20025;-54
2022/07/05 06:05:26;;;;;;;7.10;1.48;;;31.90;57.20;;;;;;5034056;28;20025;-53
2022/07/05 06:07:54;;;;;;;5.05;1.50;;;31.60;57.00;;;;;;5033190;28;20038;-53
2022/07/05 06:10:28;;;;;;;2.88;0.80;;;32.00;57.30;;;;;;5015936;28;20060;-55
2022/07/05 06:12:57;;;;;;;2.22;1.33;;;31.90;57.60;;;;;;5033989;28;20025;-48
2022/07/05 06:15:22;;;;;;;1.17;1.02;;;32.40;57.10;;;;;;5015840;28;20030;-49
2022/07/05 06:17:49;;;;;;;2.05;1.17;;;33.00;55.60;;;;;;5022409;28;20078;-48
2022/07/05 06:20:19;;;;;;;4.47;1.00;;;33.00;55.60;;;;;;5033107;28;20433;-52
2022/07/05 06:22:45;;;;;;;4.95;1.00;;;33.30;56.00;;;;;;5033872;28;20030;-46
2022/07/05 06:25:11;;;;;;;5.38;0.93;;;33.50;55.30;;;;;;5034033;28;20040;-53
2022/07/05 06:27:41;;;;;;;2.25;1.30;;;33.90;55.50;;;;;;5033064;28;20025;-52
2022/07/05 06:30:08;;;;;;;6.38;1.33;;;34.10;53.80;;;;;;5033970;28;20087;-51
2022/07/05 06:32:33;;;;;;;2.20;1.05;;;33.70;53.50;;;;;;5033724;28;20096;-54
2022/07/05 06:34:59;;;;;;;3.88;1.08;;;33.20;54.60;;;;;;5033746;28;20109;-47
2022/07/05 06:37:24;;;;;;;4.90;0.90;;;33.60;53.60;;;;;;5031763;28;20026;-49
2022/07/05 06:39:50;;;;;;;1.65;1.10;;;34.10;52.90;;;;;;5033588;28;20029;-48
2022/07/05 06:42:16;;;;;;;8.00;2.15;;;33.60;52.80;;;;;;5033720;28;20036;-52
2022/07/05 06:44:41;;;;;;;5.05;1.33;;;33.80;53.40;;;;;;5033637;28;20025;-49
2022/07/05 06:47:07;;;;;;;4.22;1.10;;;34.00;53.10;;;;;;5032601;28;20026;-49
2022/07/05 06:49:33;;;;;;;1.92;1.45;;;34.20;52.80;;;;;;5015646;28;20056;-52
2022/07/05 06:51:58;;;;;;;3.70;1.65;;;34.80;53.00;;;;;;5033442;28;20397;-49
2022/07/05 06:54:24;;;;;;;3.70;1.30;;;34.80;51.80;;;;;;5015594;28;20087;-53
2022/07/05 06:56:49;;;;;;;4.30;1.30;;;35.00;52.00;;;;;;5015071;28;20021;-50
2022/07/05 06:59:15;;;;;;;2.50;1.40;;;35.30;51.60;;;;;;5033097;28;20026;-48
2022/07/05 07:01:40;;;;;;;4.00;0.70;;;35.60;51.30;;;;;;5031935;28;20056;-45
2022/07/05 07:04:06;;;;;;;7.22;1.30;;;35.80;51.20;;;;;;5033199;28;20036;-53
2022/07/05 07:06:31;;;;;;;6.93;1.73;;;35.70;50.30;;;;;;5015347;28;20025;-55
2022/07/05 07:11:41;;;;;;;7.72;1.40;;;34.90;51.40;;;;;;5033133;28;20517;-50
2022/07/05 07:14:06;;;;;;;2.50;1.50;;;34.50;52.30;;;;;;5032901;28;20064;-51
2022/07/05 07:16:32;;;;;;;3.33;1.00;;;34.70;51.40;;;;;;5032896;28;20481;-52
2022/07/05 07:18:58;;;;;;;2.25;1.15;;;35.10;51.70;;;;;;5053153;22;20049;-53
2022/07/05 07:21:23;;;;;;;3.22;1.40;;;35.10;51.00;;;;;;5011435;28;20030;-55
2022/07/05 07:23:49;;;;;;;4.05;1.15;;;35.40;50.90;;;;;;5011751;28;20022;-52
2022/07/05 07:26:14;;;;;;;5.93;1.10;;;34.70;50.70;;;;;;5013173;28;20037;-52
2022/07/05 07:28:40;;;;;;;4.30;1.10;;;34.00;51.60;;;;;;5012292;28;20033;-51
2022/07/05 07:31:06;;;;;;;5.55;3.53;;;33.50;52.50;;;;;;5011532;28;20029;-55
2022/07/05 07:33:33;;;;;;;3.10;1.00;;;33.90;51.90;;;;;;4995177;28;20025;-52
2022/07/05 07:35:58;;;;;;;13.05;1.60;;;34.30;51.90;;;;;;4995143;28;20050;-55
2022/07/05 07:38:25;;;;;;;2.00;0.85;;;34.30;51.10;;;;;;4993436;28;20057;-52
2022/07/05 07:40:51;;;;;;;3.25;0.85;;;34.60;52.40;;;;;;5010749;28;20078;-56
2022/07/05 07:43:17;;;;;;;1.50;0.75;;;34.70;51.80;;;;;;5011795;28;20040;-58
2022/07/05 07:45:43;;;;;;;2.58;1.15;;;35.10;51.80;;;;;;4996999;28;20033;-48
2022/07/05 07:48:08;;;;;;;6.57;1.40;;;34.80;51.60;;;;;;5013039;28;20022;-51
2022/07/05 07:50:34;;;;;;;7.40;2.00;;;35.20;51.80;;;;;;5013131;28;20502;-52
2022/07/05 07:53:00;;;;;;;5.22;1.23;;;35.70;51.90;;;;;;5013659;28;20397;-49
2022/07/05 07:55:26;;;;;;;4.38;1.40;;;36.10;51.00;;;;;;5014784;28;20034;-51
2022/07/05 07:57:51;;;;;;;6.25;1.20;;;36.40;50.90;;;;;;4997777;28;20590;-51
2022/07/05 08:00:17;;;;;;;2.20;0.98;;;37.10;50.40;;;;;;5018286;28;20053;-54
2022/07/05 08:02:42;;;;;;;2.55;1.40;;;37.00;50.30;;;;;;5018316;28;20367;-51
2022/07/05 08:05:09;;;;;;;2.40;1.30;;;36.40;50.90;;;;;;5018394;28;20029;-55
2022/07/05 08:07:35;;;;;;;5.75;1.90;;;36.70;50.30;;;;;;5016924;28;20020;-57
2022/07/05 08:10:01;;;;;;;7.63;1.20;;;37.10;50.20;;;;;;5017710;28;20375;-51
2022/07/05 08:12:26;;;;;;;4.07;1.40;;;37.00;50.60;;;;;;5016115;28;20026;-57
2022/07/05 08:14:52;;;;;;;3.70;1.00;;;37.40;49.90;;;;;;5016323;28;20533;-54
2022/07/05 08:17:20;;;;;;;4.28;1.20;;;35.80;51.00;;;;;;5015843;28;20029;-55
2022/07/05 08:22:30;;;;;;;;;;;36.30;50.20;;;;;;5010200;28;20056;-50
2022/07/05 08:24:55;;;;;;;3.83;1.40;;;34.80;51.00;;;;;;4995075;28;20418;-51
2022/07/05 08:27:21;;;;;;;5.80;1.92;;;34.70;51.70;;;;;;5004236;28;20026;-53
2022/07/05 08:29:46;;;;;;;4.90;1.48;;;34.00;51.50;;;;;;4975435;28;20026;-51
2022/07/05 08:32:12;;;;;;;6.68;1.40;;;33.70;52.70;;;;;;4992663;28;20399;-47
2022/07/05 08:34:38;;;;;;;4.30;1.17;;;33.40;52.40;;;;;;4991955;28;20104;-50
2022/07/05 08:37:04;;;;;;;4.57;1.08;;;32.30;53.60;;;;;;4992116;28;20063;-49
2022/07/05 08:39:30;;;;;;;5.85;1.23;;;32.40;54.40;;;;;;4999811;28;20367;-48
2022/07/05 08:41:57;;;;;;;2.65;1.10;;;32.60;53.90;;;;;;5010985;28;20030;-56
2022/07/05 08:44:23;;;;;;;4.47;1.33;;;32.80;54.00;;;;;;5011456;28;20100;-52
2022/07/05 08:46:52;;;;;;;4.00;1.85;;;32.30;52.70;;;;;;5015335;28;20203;-54
2022/07/05 08:49:23;;;;;;;3.60;1.08;;;32.10;54.00;;;;;;5015685;28;20040;-54
2022/07/05 08:51:49;;;;;;;3.60;0.77;;;31.60;52.50;;;;;;5013751;28;20109;-54
2022/07/05 08:54:16;;;;;;;4.43;1.00;;;31.40;52.70;;;;;;5013978;28;20061;-53
2022/07/05 08:56:43;;;;;;;1.77;0.95;;;31.30;53.10;;;;;;5012845;28;20041;-49
2022/07/05 08:59:09;;;;;;;6.47;1.40;;;31.20;54.20;;;;;;4979492;28;20026;-52
2022/07/05 09:01:36;;;;;;;5.97;1.00;;;31.00;54.50;;;;;;5011441;28;20481;-49
2022/07/05 09:04:05;;;;;;;4.63;1.20;;;30.90;54.10;;;;;;5011917;28;20068;-51
2022/07/05 09:06:34;;;;;;;3.47;1.40;;;31.10;54.50;;;;;;5011605;28;20046;-49
2022/07/05 09:09:02;;;;;;;2.47;0.90;;;31.20;53.70;;;;;;4993044;28;20058;-49
2022/07/05 09:11:35;;;;;;;2.05;0.98;;;31.00;53.10;;;;;;4992070;28;20069;-52
2022/07/05 09:14:03;;;;;;;5.85;1.00;;;30.70;54.00;;;;;;4991978;28;20030;-50
2022/07/05 09:16:30;;;;;;;3.90;0.70;;;30.50;53.90;;;;;;4991798;28;20405;-51
2022/07/05 09:18:56;;;;;;;2.45;1.00;;;30.40;54.80;;;;;;5003984;28;20033;-49
2022/07/05 09:21:24;;;;;;;0.70;0.70;;;30.60;54.80;;;;;;4999519;28;20113;-48
2022/07/05 09:24:09;;;;;;;2.30;1.13;;;30.70;53.60;;;;;;5010700;28;20076;-51
2022/07/05 09:26:37;;;;;;;4.85;0.95;;;30.80;53.30;;;;;;5014436;28;20088;-51
2022/07/05 09:29:14;;;;;;;1.92;1.15;;;31.00;54.00;;;;;;4996557;28;20057;-47
2022/07/05 09:31:42;;;;;;;1.92;1.25;;;30.90;53.80;;;;;;5015060;28;20064;-51
2022/07/05 09:34:09;;;;;;;26.70;23.80;;;30.60;53.00;;;;;;5015121;28;20374;-48
2022/07/05 09:36:55;;;;;;;3.92;2.95;;;30.40;53.00;;;;;;5014945;28;20033;-56
2022/07/05 09:39:29;;;;;;;3.08;1.58;;;30.20;53.90;;;;;;5014317;28;20054;-48
2022/07/05 09:42:22;;;;;;;2.70;1.33;;;29.90;53.80;;;;;;5015021;28;20065;-48
2022/07/05 09:44:55;;;;;;;6.78;1.48;;;29.50;55.20;;;;;;5014937;28;20497;-53
2022/07/05 09:47:26;;;;;;;2.58;0.90;;;29.30;55.80;;;;;;5014163;28;20037;-50
2022/07/05 09:49:54;;;;;;;4.85;1.23;;;29.20;55.10;;;;;;5014984;28;20042;-49
2022/07/05 09:52:30;;;;;;;5.45;1.33;;;29.30;55.20;;;;;;5014796;28;20481;-53
2022/07/05 09:55:19;;;;;;;1.75;1.08;;;29.30;55.20;;;;;;5014864;28;20034;-46
2022/07/05 09:57:46;;;;;;;5.22;1.05;;;29.30;56.00;;;;;;5014139;28;20387;-49
2022/07/05 10:00:20;;;;;;;7.25;0.88;;;29.40;55.70;;;;;;5014671;28;20018;-51
2022/07/05 10:02:48;;;;;;;11.13;0.95;;;29.20;56.40;;;;;;5014638;28;20030;-51
2022/07/05 10:05:23;;;;;;;4.40;0.88;;;29.40;56.30;;;;;;5014652;28;20101;-53
2022/07/05 10:07:54;;;;;;;2.17;0.98;;;29.10;56.20;;;;;;5013940;28;20441;-51
2022/07/05 10:10:23;;;;;;;0.82;0.82;;;28.70;57.10;;;;;;5014687;28;20029;-49
2022/07/05 10:12:50;;;;;;;0.73;0.60;;;28.60;57.70;;;;;;5014450;28;20026;-53
2022/07/05 10:15:18;;;;;;;4.53;1.00;;;28.60;56.20;;;;;;5014216;28;20041;-51
2022/07/05 10:17:54;;;;;;;1.60;1.00;;;28.70;57.50;;;;;;5013688;28;20092;-52
2022/07/05 10:20:32;;;;;;;3.05;1.00;;;28.80;56.70;;;;;;5014296;28;20137;-49
2022/07/05 10:22:58;;;;;;;7.63;1.05;;;28.80;56.60;;;;;;4997002;28;20072;-51
2022/07/05 10:25:28;;;;;;;1.38;0.75;;;28.60;57.00;;;;;;5014289;28;20034;-49
2022/07/05 10:27:54;;;;;;;2.97;0.88;;;28.80;57.00;;;;;;5013591;28;20081;-49
2022/07/05 10:30:22;;;;;;;1.05;0.73;;;28.80;56.10;;;;;;5013994;28;20048;-50
2022/07/05 10:32:49;;;;;;;2.40;1.00;;;28.70;55.40;;;;;;5014291;28;20032;-51
2022/07/05 10:35:16;;;;;;;2.90;1.05;;;28.60;56.00;;;;;;5014142;28;20033;-48
2022/07/05 10:37:43;;;;;;;9.40;1.27;;;28.40;55.80;;;;;;5011345;28;20026;-53
2022/07/05 10:40:09;;;;;;;4.97;1.60;;;28.40;56.30;;;;;;5014040;28;20022;-50
2022/07/05 10:42:55;;;;;;;36.92;32.25;;;28.20;55.80;;;;;;5014035;28;20497;-52
2022/07/05 10:45:34;;;;;;;26.00;20.55;;;28.30;54.50;;;;;;5013613;28;20042;-49
2022/07/05 10:48:24;;;;;;;4.07;1.17;;;28.30;53.80;;;;;;5013008;28;20040;-50
2022/07/05 10:50:52;;;;;;;1.52;0.77;;;28.20;54.50;;;;;;5013693;28;20032;-50
2022/07/05 10:53:25;;;;;;;3.80;1.00;;;28.20;55.50;;;;;;5013788;28;20049;-52
2022/07/05 10:55:53;;;;;;;0.98;0.70;;;28.20;56.20;;;;;;5013670;28;20026;-47
2022/07/05 10:58:21;;;;;;;1.58;0.73;;;28.00;55.00;;;;;;5012897;28;20021;-49
2022/07/05 11:00:49;;;;;;;2.35;0.88;;;27.80;55.10;;;;;;5013431;28;20030;-54
2022/07/05 11:03:35;;;;;;;1.80;0.90;;;27.70;56.10;;;;;;5013731;28;20056;-53
2022/07/05 11:06:02;;;;;;;1.40;0.90;;;27.50;55.00;;;;;;5013526;28;20036;-53
2022/07/05 11:08:28;;;;;;;6.00;1.15;;;27.60;56.50;;;;;;5012536;28;20022;-48
2022/07/05 11:11:11;;;;;;;1.63;1.00;;;27.60;55.80;;;;;;5012973;28;20029;-48
2022/07/05 11:13:43;;;;;;;1.33;1.00;;;27.60;56.40;;;;;;5013099;28;20405;-52
2022/07/05 11:16:22;;;;;;;4.47;1.13;;;27.50;57.10;;;;;;5013147;28;20505;-50
2022/07/05 11:18:53;;;;;;;0.80;0.80;;;27.50;55.70;;;;;;5012218;28;20021;-49
2022/07/05 11:21:20;;;;;;;1.55;0.90;;;27.40;55.50;;;;;;5010047;28;20512;-48
2022/07/05 11:23:47;;;;;;;2.58;0.95;;;27.30;54.40;;;;;;5010920;28;20092;-50
2022/07/05 11:26:15;;;;;;;1.83;1.00;;;27.30;56.10;;;;;;5013779;28;20096;-48
2022/07/05 11:28:46;;;;;;;2.17;1.00;;;27.30;56.60;;;;;;5011887;28;20033;-53
2022/07/05 11:31:11;;;;;;;1.58;1.10;;;27.30;56.30;;;;;;5001815;28;20105;-47
2022/07/05 11:33:40;;;;;;;3.33;1.00;;;27.40;54.30;;;;;;5012626;28;20526;-49
2022/07/05 11:36:26;;;;;;;8.57;1.20;;;27.30;54.50;;;;;;5012837;28;20022;-45
2022/07/05 11:39:09;;;;;;;2.42;0.82;;;27.30;54.80;;;;;;4992096;28;20026;-45
2022/07/05 11:41:37;;;;;;;3.10;0.93;;;27.30;54.70;;;;;;4993053;28;20027;-47
2022/07/05 11:44:03;;;;;;;4.20;0.90;;;27.30;55.30;;;;;;4993000;28;20054;-50
2022/07/05 11:46:31;;;;;;;0.90;0.85;;;27.30;55.90;;;;;;4992875;28;20026;-48
2022/07/05 11:48:57;;;;;;;1.27;0.95;;;27.20;54.60;;;;;;4991378;28;20490;-49
2022/07/05 11:51:23;;;;;;;1.08;0.95;;;27.10;54.40;;;;;;4996480;28;20109;-51
2022/07/05 11:53:48;;;;;;;3.83;1.17;;;27.10;54.90;;;;;;5012409;28;20117;-46
2022/07/05 11:56:14;;;;;;;3.28;0.90;;;27.00;54.00;;;;;;5012128;28;20041;-46
2022/07/05 11:58:39;;;;;;;4.95;1.08;;;27.10;55.50;;;;;;5011730;28;20022;-46
2022/07/05 12:01:06;;;;;;;1.10;0.95;;;27.20;56.40;;;;;;5012255;28;20080;-50
2022/07/05 12:03:31;;;;;;;2.50;1.20;;;27.20;55.20;;;;;;5012288;28;20425;-48
2022/07/05 12:05:57;;;;;;;2.25;0.88;;;27.30;55.50;;;;;;5012402;28;20026;-46
2022/07/05 12:08:23;;;;;;;3.20;0.90;;;27.40;55.30;;;;;;5011661;28;20165;-46
2022/07/05 12:13:47;;;;;;;3.35;1.08;;;27.40;54.40;;;;;;5012509;28;20044;-46
2022/07/05 12:16:13;;;;;;;6.60;3.90;;;27.30;54.50;;;;;;5012245;28;20030;-47
2022/07/05 12:18:55;;;;;;;4.50;0.98;;;27.20;54.50;;;;;;5011165;28;20402;-45
2022/07/05 12:21:22;;;;;;;4.13;0.93;;;27.30;55.50;;;;;;4975542;28;20037;-46
2022/07/05 12:23:49;;;;;;;2.60;0.95;;;27.40;55.50;;;;;;4993061;28;20037;-46
2022/07/05 12:26:16;;;;;;;2.15;1.00;;;27.50;54.80;;;;;;4992738;28;20022;-46
2022/07/05 12:28:43;;;;;;;1.20;0.82;;;27.50;55.80;;;;;;4991977;28;20495;-47
2022/07/05 12:31:24;;;;;;;7.10;0.90;;;27.60;55.30;;;;;;5007967;28;20486;-52
2022/07/05 12:33:51;;;;;;;7.63;0.80;;;27.70;54.70;;;;;;5011862;28;20030;-46
2022/07/05 12:36:19;;;;;;;5.07;1.05;;;27.70;55.00;;;;;;5011622;28;20497;-46
2022/07/05 12:38:45;;;;;;;5.35;1.20;;;27.60;54.80;;;;;;5011122;28;20021;-48
2022/07/05 12:41:11;;;;;;;2.72;0.90;;;27.50;54.60;;;;;;5011808;28;20510;-48
2022/07/05 12:43:54;;;;;;;1.65;0.95;;;27.30;54.90;;;;;;5011480;28;20022;-49
2022/07/05 12:46:20;;;;;;;4.05;1.92;;;27.10;55.30;;;;;;5011927;28;20026;-47
2022/07/05 12:48:53;;;;;;;2.95;1.00;;;27.10;55.70;;;;;;5010782;28;20026;-46
2022/07/05 12:51:36;;;;;;;1.42;0.77;;;27.30;56.10;;;;;;5011504;28;20018;-47
2022/07/05 12:59:36;;;;;;;2.65;0.82;;;27.70;55.30;;;;;;5011835;28;20044;-48
2022/07/05 13:02:03;;;;;;;1.55;0.98;;;27.70;55.40;;;;;;5013951;28;20057;-52
2022/07/05 13:04:29;;;;;;;1.75;0.80;;;27.70;54.40;;;;;;5015913;28;20444;-50